Time;durP1;ratioP1;P1;durP2;ratioP2;P2;SDS_P1;SDS_P2;PMS_P1;PMS_P2;Temp;Humidity;BMP_temperature;BMP_pressure;BME280_temperature;BME280_humidity;BME280_pressure;Samples;Min_cycle;Max_cycle;Signal;HPM_P1;HPM_P2
2023/01/08 00:08:41;;;;;;;1.50;0.85;;;9.00;99.90;;;;;;20503657;28;20070;-42
2023/01/08 00:18:43;;;;;;;1.67;0.70;;;8.90;99.70;;;;;;20494923;28;20224;-42
2023/01/08 00:28:44;;;;;;;3.28;0.80;;;8.90;98.00;;;;;;20500057;28;20164;-42
2023/01/08 00:38:46;;;;;;;2.97;0.85;;;9.00;98.30;;;;;;20497982;28;20117;-42
2023/01/08 00:48:47;;;;;;;2.80;0.82;;;9.00;99.90;;;;;;20493847;28;20118;-42
2023/01/08 00:58:48;;;;;;;1.13;0.30;;;9.00;99.90;;;;;;20494132;28;20045;-42
2023/01/08 01:08:49;;;;;;;2.28;0.80;;;9.00;99.90;;;;;;20495137;28;20034;-42
2023/01/08 01:18:51;;;;;;;3.33;0.80;;;8.90;99.90;;;;;;20460791;28;1096830;-42
2023/01/08 01:28:54;;;;;;;1.90;0.75;;;8.90;99.90;;;;;;20480358;28;20191;-43
2023/01/08 01:38:56;;;;;;;1.63;0.77;;;9.00;99.90;;;;;;20493138;28;20582;-42
2023/01/08 01:49:01;;;;;;;2.05;0.82;;;9.10;99.90;;;;;;20505964;28;20087;-42
2023/01/08 01:59:03;;;;;;;0.93;0.28;;;9.20;99.90;;;;;;20514498;28;20093;-42
2023/01/08 02:09:20;;;;;;;1.45;0.30;;;9.20;99.90;;;;;;20509840;28;20046;-42
2023/01/08 02:19:39;;;;;;;0.80;0.37;;;9.10;99.90;;;;;;20513770;28;21238;-42
2023/01/08 02:29:41;;;;;;;1.40;0.22;;;9.00;99.90;;;;;;20476998;28;20327;-42
2023/01/08 02:40:02;;;;;;;1.48;0.40;;;9.00;99.90;;;;;;20485823;28;20126;-42
2023/01/08 02:50:14;;;;;;;0.82;0.25;;;9.00;99.90;;;;;;20439527;28;20534;-42
2023/01/08 03:00:15;;;;;;;1.00;0.47;;;9.00;99.90;;;;;;20406442;28;20126;-42
2023/01/08 03:10:20;;;;;;;3.45;0.98;;;9.10;99.90;;;;;;20410641;28;20885;-42
2023/01/08 03:20:23;;;;;;;2.38;0.43;;;9.20;99.90;;;;;;20391376;28;20189;-42
2023/01/08 03:40:50;;;;;;;1.47;0.80;;;9.20;96.40;;;;;;20922462;23;20069;-41
2023/01/08 03:50:51;;;;;;;1.30;0.57;;;9.30;93.30;;;;;;20460938;28;20037;-41
2023/01/08 04:00:52;;;;;;;1.05;0.50;;;9.30;92.50;;;;;;20469394;28;20074;-41
2023/01/08 04:10:53;;;;;;;1.35;0.63;;;9.20;95.40;;;;;;20476816;28;20040;-41
2023/01/08 04:20:54;;;;;;;1.88;1.05;;;9.30;95.60;;;;;;20515962;28;20145;-41
2023/01/08 04:30:55;;;;;;;15.18;1.85;;;9.30;96.50;;;;;;20549589;28;20039;-41
2023/01/08 04:40:58;;;;;;;4.47;0.65;;;9.30;95.60;;;;;;20481742;28;20126;-41
2023/01/08 04:51:00;;;;;;;3.38;0.88;;;9.30;95.50;;;;;;20480968;28;20114;-41
2023/01/08 05:01:12;;;;;;;1.77;0.65;;;9.10;98.60;;;;;;20476196;28;20070;-41
2023/01/08 05:11:13;;;;;;;1.90;0.73;;;8.90;99.90;;;;;;20478492;28;20043;-41
2023/01/08 05:21:14;;;;;;;1.60;0.88;;;8.70;99.90;;;;;;20474744;28;20085;-42
2023/01/08 05:31:15;;;;;;;1.35;0.40;;;8.70;99.90;;;;;;20473406;28;20071;-42
2023/01/08 05:41:16;;;;;;;2.17;0.40;;;8.60;99.90;;;;;;20473128;28;20079;-41
2023/01/08 05:51:17;;;;;;;1.33;0.75;;;8.50;99.90;;;;;;20472136;28;20031;-42
2023/01/08 06:01:18;;;;;;;2.15;0.98;;;8.20;99.90;;;;;;20482567;28;20329;-41
2023/01/08 06:11:20;;;;;;;1.23;0.65;;;8.00;99.90;;;;;;20489413;28;20043;-41
2023/01/08 06:21:21;;;;;;;2.58;0.73;;;8.00;99.90;;;;;;20482767;28;20486;-41
2023/01/08 06:31:22;;;;;;;1.60;0.98;;;7.90;99.90;;;;;;20486341;28;20418;-41
2023/01/08 06:41:23;;;;;;;1.27;0.45;;;7.70;99.90;;;;;;20453197;28;20514;-41
2023/01/08 06:51:24;;;;;;;2.03;0.93;;;7.70;99.90;;;;;;20468215;28;20066;-41
2023/01/08 07:01:25;;;;;;;1.98;0.57;;;7.60;99.90;;;;;;20463672;28;20043;-41
2023/01/08 07:11:26;;;;;;;1.35;0.75;;;7.60;99.90;;;;;;20466582;28;20149;-41
2023/01/08 07:21:27;;;;;;;1.17;0.50;;;7.50;99.90;;;;;;20462899;28;20043;-41
2023/01/08 07:31:28;;;;;;;1.23;0.68;;;7.50;99.90;;;;;;20468792;28;20043;-41
2023/01/08 07:41:29;;;;;;;2.08;0.55;;;7.50;99.90;;;;;;20462259;28;20121;-41
2023/01/08 07:51:30;;;;;;;2.78;0.88;;;7.40;99.90;;;;;;20455235;28;20183;-41
2023/01/08 08:01:31;;;;;;;1.90;0.77;;;7.40;99.90;;;;;;20467259;28;20050;-42
2023/01/08 08:11:32;;;;;;;4.30;0.95;;;7.30;99.90;;;;;;20480021;28;20066;-41
2023/01/08 08:21:33;;;;;;;2.53;0.73;;;7.30;99.90;;;;;;20478529;28;20441;-41
2023/01/08 08:31:34;;;;;;;2.72;1.23;;;7.30;99.90;;;;;;20477081;28;20494;-41
2023/01/08 08:41:35;;;;;;;8.77;2.80;;;7.30;99.90;;;;;;20456953;28;20118;-41
2023/01/08 08:51:36;;;;;;;3.88;0.90;;;7.20;99.90;;;;;;20403683;28;20894;-41
2023/01/08 09:01:37;;;;;;;1.63;0.60;;;7.20;99.90;;;;;;20436656;28;20126;-41
2023/01/08 09:11:38;;;;;;;4.43;1.20;;;7.30;99.90;;;;;;20454949;28;20190;-41
2023/01/08 09:21:39;;;;;;;9.95;2.40;;;7.30;99.90;;;;;;20474782;28;20035;-41
2023/01/08 09:31:40;;;;;;;2.55;0.90;;;7.40;99.80;;;;;;20459650;28;20067;-41
2023/01/08 09:41:46;;;;;;;1.92;0.85;;;7.60;98.40;;;;;;20466054;28;20913;-41
2023/01/08 09:51:47;;;;;;;4.38;1.33;;;7.80;95.90;;;;;;20457948;28;20067;-41
2023/01/08 10:01:49;;;;;;;7.30;0.93;;;8.10;96.10;;;;;;20443102;28;20043;-41
2023/01/08 10:11:53;;;;;;;2.78;1.02;;;8.20;95.80;;;;;;20442029;28;20161;-41
2023/01/08 10:21:55;;;;;;;7.57;0.85;;;8.40;95.10;;;;;;20454876;28;20519;-41
2023/01/08 10:31:57;;;;;;;4.15;1.48;;;8.60;94.20;;;;;;20437166;28;20141;-41
2023/01/08 10:42:04;;;;;;;3.67;1.83;;;8.70;94.10;;;;;;20458320;28;20142;-41
2023/01/08 10:52:25;;;;;;;3.80;1.45;;;9.10;92.40;;;;;;20466866;28;20121;-42
2023/01/08 11:02:34;;;;;;;2.63;0.93;;;9.30;90.70;;;;;;20474180;28;20130;-42
2023/01/08 11:12:38;;;;;;;5.70;2.33;;;9.90;85.60;;;;;;20462349;28;20109;-41
2023/01/08 11:22:39;;;;;;;2.20;0.80;;;10.20;83.00;;;;;;20412034;28;20948;-41
2023/01/08 11:32:50;;;;;;;2.72;0.60;;;10.40;80.80;;;;;;20447410;28;20091;-41
2023/01/08 11:43:14;;;;;;;4.07;0.88;;;10.90;74.50;;;;;;20481399;28;20043;-41
2023/01/08 11:53:39;;;;;;;2.42;0.98;;;10.60;75.90;;;;;;20497416;28;20039;-41
2023/01/08 12:04:02;;;;;;;1.80;0.55;;;10.50;77.50;;;;;;20493940;28;20499;-41
2023/01/08 12:14:27;;;;;;;1.48;0.77;;;10.80;75.00;;;;;;20480731;28;20201;-41
2023/01/08 12:24:49;;;;;;;1.73;0.73;;;11.60;66.70;;;;;;20464589;28;20059;-42
2023/01/08 12:35:04;;;;;;;1.10;0.47;;;12.00;64.00;;;;;;20469210;28;20405;-41
2023/01/08 12:45:12;;;;;;;1.20;0.47;;;11.80;64.90;;;;;;20431124;28;20101;-41
2023/01/08 12:56:10;;;;;;;0.95;0.40;;;11.90;64.10;;;;;;20473102;28;20137;-41
2023/01/08 13:06:14;;;;;;;2.15;0.38;;;12.20;61.40;;;;;;20401224;28;20039;-41
2023/01/08 13:16:19;;;;;;;1.50;0.65;;;12.20;57.70;;;;;;20476652;28;20042;-41
2023/01/08 13:26:28;;;;;;;0.90;0.38;;;12.10;56.80;;;;;;20464769;28;22258;-41
2023/01/08 13:36:30;;;;;;;1.23;0.40;;;11.80;56.50;;;;;;20453184;28;20541;-41
2023/01/08 13:46:39;;;;;;;0.75;0.30;;;11.30;58.80;;;;;;20417843;28;20594;-41
2023/01/08 13:56:42;;;;;;;1.70;0.40;;;11.00;59.30;;;;;;20466662;28;20712;-42
2023/01/08 14:06:43;;;;;;;2.50;0.60;;;10.80;58.40;;;;;;20451014;28;20185;-42
2023/01/08 14:16:47;;;;;;;1.92;0.52;;;10.50;60.60;;;;;;20455240;28;20062;-42
2023/01/08 14:26:56;;;;;;;6.47;0.80;;;10.40;60.90;;;;;;20458141;28;20772;-42
2023/01/08 14:36:57;;;;;;;1.30;0.70;;;10.20;61.60;;;;;;20459532;28;20187;-42
2023/01/08 14:46:58;;;;;;;4.00;0.80;;;10.10;63.00;;;;;;20449392;28;20138;-42
2023/01/08 14:57:01;;;;;;;1.30;0.73;;;9.90;64.50;;;;;;20462834;28;20086;-42
2023/01/08 15:07:13;;;;;;;2.58;0.38;;;9.80;65.40;;;;;;20451667;28;20125;-42
2023/01/08 15:17:18;;;;;;;1.55;0.60;;;9.70;65.80;;;;;;20449156;28;20543;-42
2023/01/08 15:27:20;;;;;;;4.38;0.98;;;9.70;64.80;;;;;;20475207;28;21865;-41
2023/01/08 15:37:21;;;;;;;1.33;0.43;;;9.50;66.90;;;;;;20484179;28;20090;-42
2023/01/08 15:47:22;;;;;;;3.85;1.15;;;9.40;67.80;;;;;;20490494;28;20047;-42
2023/01/08 15:57:23;;;;;;;2.88;0.80;;;9.20;68.50;;;;;;20488989;28;20049;-42
2023/01/08 16:07:24;;;;;;;4.13;1.45;;;9.00;69.90;;;;;;20489216;28;20039;-42
2023/01/08 16:17:28;;;;;;;12.77;0.77;;;8.90;70.80;;;;;;20493613;28;20042;-42
2023/01/08 16:27:30;;;;;;;4.07;1.42;;;8.80;71.30;;;;;;20493794;28;20699;-42
2023/01/08 16:37:31;;;;;;;3.35;0.60;;;8.80;72.60;;;;;;20498362;28;20066;-42
2023/01/08 16:47:37;;;;;;;2.40;1.27;;;8.70;74.60;;;;;;20509417;28;20039;-42
2023/01/08 16:57:38;;;;;;;2.13;0.40;;;8.70;74.90;;;;;;20520136;28;21868;-42
2023/01/08 17:07:39;;;;;;;2.08;1.05;;;8.80;75.30;;;;;;20503622;28;20035;-42
2023/01/08 17:17:40;;;;;;;1.52;0.63;;;8.90;74.70;;;;;;20512681;28;20047;-42
2023/01/08 17:27:42;;;;;;;3.33;0.88;;;8.90;75.50;;;;;;20507103;28;20456;-42
2023/01/08 17:37:43;;;;;;;1.52;0.80;;;8.90;76.20;;;;;;20505280;28;20044;-42
2023/01/08 17:47:44;;;;;;;1.48;0.60;;;9.00;75.90;;;;;;20502849;28;20035;-42
2023/01/08 17:57:47;;;;;;;1.52;0.32;;;9.00;76.70;;;;;;20492283;28;20050;-42
2023/01/08 18:07:48;;;;;;;1.88;0.60;;;9.10;76.10;;;;;;20491470;28;20466;-42
2023/01/08 18:17:49;;;;;;;4.85;1.88;;;9.10;74.80;;;;;;20496536;28;20412;-42
2023/01/08 18:27:50;;;;;;;2.58;1.15;;;9.20;74.00;;;;;;20497274;28;20470;-42
2023/01/08 18:37:51;;;;;;;2.05;0.30;;;9.20;73.20;;;;;;20484620;28;20043;-39
2023/01/08 18:47:52;;;;;;;1.15;0.68;;;9.10;73.20;;;;;;20487025;28;20498;-39
2023/01/08 18:57:53;;;;;;;3.60;1.17;;;9.10;73.90;;;;;;20489998;28;20047;-39
2023/01/08 19:07:54;;;;;;;6.93;1.17;;;8.90;74.80;;;;;;20485878;28;20035;-39
2023/01/08 19:17:55;;;;;;;2.72;1.60;;;8.90;76.10;;;;;;20481174;28;20047;-40
2023/01/08 19:27:56;;;;;;;1.40;0.70;;;8.90;77.40;;;;;;20421522;28;20043;-42
2023/01/08 19:37:58;;;;;;;1.33;0.88;;;8.90;79.00;;;;;;20448052;28;21708;-40
2023/01/08 19:47:59;;;;;;;1.73;0.65;;;8.90;78.00;;;;;;20447447;28;20096;-40
2023/01/08 19:58:02;;;;;;;1.65;0.60;;;8.80;78.70;;;;;;20459249;28;20058;-40
2023/01/08 20:08:03;;;;;;;2.90;0.70;;;8.80;78.70;;;;;;20471396;28;20161;-39
2023/01/08 20:18:04;;;;;;;2.20;0.82;;;8.80;79.40;;;;;;20475829;28;20130;-40
2023/01/08 20:28:08;;;;;;;1.63;0.60;;;8.80;78.50;;;;;;20475044;28;20066;-40
2023/01/08 20:38:11;;;;;;;0.88;0.30;;;8.90;76.60;;;;;;20475653;28;20095;-39
2023/01/08 20:48:12;;;;;;;2.15;0.50;;;8.90;76.80;;;;;;20474298;28;20352;-40
2023/01/08 20:58:13;;;;;;;2.67;0.38;;;8.90;76.80;;;;;;20476917;28;20307;-40
2023/01/08 21:08:14;;;;;;;1.55;0.60;;;8.80;78.80;;;;;;20478203;28;20046;-39
2023/01/08 21:18:15;;;;;;;1.85;0.43;;;8.90;79.00;;;;;;20469615;28;20031;-40
2023/01/08 21:28:16;;;;;;;1.13;0.40;;;8.90;80.00;;;;;;20477044;28;20134;-40
2023/01/08 21:38:17;;;;;;;2.53;1.05;;;8.90;81.70;;;;;;20470503;28;20066;-43
2023/01/08 21:48:18;;;;;;;1.83;0.63;;;8.80;82.60;;;;;;20468581;28;20403;-40
2023/01/08 21:58:20;;;;;;;1.05;0.70;;;8.80;86.50;;;;;;20469175;28;20459;-39
2023/01/08 22:08:21;;;;;;;1.75;0.52;;;8.70;94.50;;;;;;20473549;28;20035;-39
2023/01/08 22:18:22;;;;;;;2.10;0.60;;;8.20;99.90;;;;;;20472605;28;20086;-39
2023/01/08 22:28:24;;;;;;;1.90;0.60;;;8.00;99.90;;;;;;20466334;28;20074;-38
2023/01/08 22:38:25;;;;;;;1.75;0.50;;;7.90;99.90;;;;;;20472103;28;20538;-39
2023/01/08 22:48:26;;;;;;;0.35;0.20;;;7.80;99.90;;;;;;20463679;28;20548;-39
2023/01/08 22:58:28;;;;;;;0.77;0.30;;;7.70;99.90;;;;;;20470542;28;20125;-39
2023/01/08 23:08:29;;;;;;;1.83;0.47;;;7.60;99.90;;;;;;20476836;28;20039;-39
2023/01/08 23:18:30;;;;;;;3.38;1.00;;;7.60;99.90;;;;;;20466179;28;20121;-39
2023/01/08 23:28:31;;;;;;;2.22;0.80;;;7.60;99.90;;;;;;20462420;28;20063;-39
2023/01/08 23:38:32;;;;;;;4.68;0.80;;;7.50;99.90;;;;;;20453539;28;20091;-38
2023/01/08 23:48:33;;;;;;;1.23;0.22;;;7.40;99.90;;;;;;20459007;28;20070;-39
2023/01/08 23:58:35;;;;;;;2.17;1.15;;;7.40;99.90;;;;;;20458515;28;20070;-39
